Time;durP1;ratioP1;P1;durP2;ratioP2;P2;SDS_P1;SDS_P2;PMS_P1;PMS_P2;Temp;Humidity;BMP_temperature;BMP_pressure;BME280_temperature;BME280_humidity;BME280_pressure;Samples;Min_cycle;Max_cycle;Signal;HPM_P1;HPM_P2
2021/01/29 00:00:54;;;;;;;23.97;15.50;;;;;;;;;;5053262;28;20558;-87
2021/01/29 00:03:19;;;;;;;29.60;15.40;;;;;;;;;;5053341;28;20203;-86
2021/01/29 00:05:48;;;;;;;25.70;15.80;;;;;;;;;;5053479;28;20617;-86
2021/01/29 00:08:13;;;;;;;24.23;14.63;;;;;;;;;;5053208;28;20168;-86
2021/01/29 00:10:39;;;;;;;33.77;17.93;;;;;;;;;;5052999;28;20499;-86
2021/01/29 00:13:06;;;;;;;35.17;17.97;;;;;;;;;;5053056;28;20192;-86
2021/01/29 00:15:31;;;;;;;63.50;28.30;;;;;;;;;;5053396;28;20179;-86
2021/01/29 00:17:57;;;;;;;59.40;31.90;;;;;;;;;;5053364;28;20512;-86
2021/01/29 00:20:24;;;;;;;23.03;13.73;;;;;;;;;;5052730;28;20247;-86
2021/01/29 00:22:49;;;;;;;44.23;21.67;;;;;;;;;;5053402;28;20200;-86
2021/01/29 00:25:17;;;;;;;22.30;13.00;;;;;;;;;;5053448;28;20789;-86
2021/01/29 00:27:42;;;;;;;51.10;22.20;;;;;;;;;;5054123;28;20179;-86
2021/01/29 00:30:08;;;;;;;83.23;32.13;;;;;;;;;;5052788;28;20179;-86
2021/01/29 00:32:34;;;;;;;58.70;23.93;;;;;;;;;;5035768;28;20172;-86
2021/01/29 00:34:59;;;;;;;34.43;16.90;;;;;;;;;;5053641;28;20199;-86
2021/01/29 00:37:24;;;;;;;59.23;26.63;;;;;;;;;;5053960;28;20666;-87
2021/01/29 00:39:49;;;;;;;37.80;18.33;;;;;;;;;;5053332;28;20168;-86
2021/01/29 00:42:15;;;;;;;60.97;28.37;;;;;;;;;;5053328;28;20199;-86
2021/01/29 00:44:40;;;;;;;42.07;21.50;;;;;;;;;;5053566;28;20164;-86
2021/01/29 00:47:05;;;;;;;77.57;32.30;;;;;;;;;;5053161;28;20164;-86
2021/01/29 00:49:31;;;;;;;76.80;31.97;;;;;;;;;;5053341;28;20164;-86
2021/01/29 00:51:56;;;;;;;36.50;19.07;;;;;;;;;;5053098;28;20168;-86
2021/01/29 00:54:21;;;;;;;65.63;28.10;;;;;;;;;;5052987;28;20206;-86
2021/01/29 00:56:47;;;;;;;37.50;20.03;;;;;;;;;;5053146;28;20227;-86
2021/01/29 00:59:12;;;;;;;63.33;27.53;;;;;;;;;;5052675;28;20175;-86
2021/01/29 01:01:37;;;;;;;52.70;25.40;;;;;;;;;;5053167;28;20551;-86
2021/01/29 01:04:03;;;;;;;41.80;22.07;;;;;;;;;;5052934;28;20172;-86
2021/01/29 01:06:28;;;;;;;27.33;16.00;;;;;;;;;;5052866;28;20175;-86
2021/01/29 01:08:53;;;;;;;26.63;15.73;;;;;;;;;;5053013;28;20163;-86
2021/01/29 01:11:19;;;;;;;41.10;20.87;;;;;;;;;;5052954;28;20191;-86
2021/01/29 01:13:44;;;;;;;53.90;25.20;;;;;;;;;;5052726;28;20201;-86
2021/01/29 01:16:10;;;;;;;51.30;25.87;;;;;;;;;;5053206;28;20183;-86
2021/01/29 01:18:35;;;;;;;31.03;16.73;;;;;;;;;;5052786;28;20252;-86
2021/01/29 01:21:00;;;;;;;43.23;21.73;;;;;;;;;;5053143;28;20528;-86
2021/01/29 01:23:26;;;;;;;43.23;23.83;;;;;;;;;;5053102;28;20199;-86
2021/01/29 01:25:51;;;;;;;34.80;19.27;;;;;;;;;;5013704;28;20239;-86
2021/01/29 01:28:16;;;;;;;39.00;23.13;;;;;;;;;;5013561;28;20256;-86
2021/01/29 01:30:42;;;;;;;46.03;25.57;;;;;;;;;;5012039;28;20177;-87
2021/01/29 01:33:07;;;;;;;30.27;16.87;;;;;;;;;;5012928;28;20177;-87
2021/01/29 01:35:33;;;;;;;45.23;25.00;;;;;;;;;;5013327;28;20260;-87
2021/01/29 01:37:59;;;;;;;31.93;18.47;;;;;;;;;;5013477;28;20188;-87
2021/01/29 01:40:34;;;;;;;43.53;23.47;;;;;;;;;;5013208;28;20173;-87
2021/01/29 01:42:59;;;;;;;31.07;17.97;;;;;;;;;;5012206;28;20208;-86
2021/01/29 01:45:27;;;;;;;35.07;20.67;;;;;;;;;;5013087;28;20637;-86
2021/01/29 01:47:59;;;;;;;28.73;16.83;;;;;;;;;;5013104;28;20169;-87
2021/01/29 01:50:30;;;;;;;40.07;22.43;;;;;;;;;;5012853;28;20751;-87
2021/01/29 01:52:56;;;;;;;26.90;15.20;;;;;;;;;;5012599;28;20184;-87
2021/01/29 01:55:24;;;;;;;23.50;14.97;;;;;;;;;;5013131;28;20256;-87
2021/01/29 01:57:52;;;;;;;24.50;14.33;;;;;;;;;;5013197;28;20204;-87
2021/01/29 02:00:20;;;;;;;19.73;12.97;;;;;;;;;;5012755;28;20332;-86
2021/01/29 02:02:46;;;;;;;22.70;15.10;;;;;;;;;;5012533;28;20699;-87
2021/01/29 02:05:16;;;;;;;23.33;14.33;;;;;;;;;;5013145;28;20173;-86
2021/01/29 02:07:48;;;;;;;20.07;12.63;;;;;;;;;;5012882;28;20173;-86
2021/01/29 02:10:13;;;;;;;27.13;16.53;;;;;;;;;;5012752;28;20235;-86
2021/01/29 02:12:38;;;;;;;22.90;13.20;;;;;;;;;;5012680;28;20196;-86
2021/01/29 02:15:06;;;;;;;18.40;11.70;;;;;;;;;;5012648;28;20247;-86
2021/01/29 02:17:58;;;;;;;18.70;12.67;;;;;;;;;;5012736;28;20626;-86
2021/01/29 02:20:50;;;;;;;21.40;13.50;;;;;;;;;;5013315;28;20165;-86
2021/01/29 02:23:34;;;;;;;21.60;11.83;;;;;;;;;;5012397;28;20251;-86
2021/01/29 02:26:28;;;;;;;16.53;9.63;;;;;;;;;;5050897;28;20711;-86
2021/01/29 02:29:12;;;;;;;13.17;8.93;;;;;;;;;;5021196;28;20267;-86
2021/01/29 02:31:56;;;;;;;13.57;8.23;;;;;;;;;;5051929;28;20172;-87
2021/01/29 02:34:40;;;;;;;14.03;7.83;;;;;;;;;;5052047;28;20275;-87
2021/01/29 02:37:31;;;;;;;13.43;9.10;;;;;;;;;;5052156;28;20194;-86
2021/01/29 02:39:56;;;;;;;14.30;8.73;;;;;;;;;;5028358;28;20219;-87
2021/01/29 02:42:29;;;;;;;15.30;8.83;;;;;;;;;;5051872;28;20231;-87
2021/01/29 02:45:07;;;;;;;15.27;10.17;;;;;;;;;;5034563;28;20533;-87
2021/01/29 02:47:36;;;;;;;16.53;11.10;;;;;;;;;;5051758;28;20168;-86
2021/01/29 02:50:20;;;;;;;19.33;11.17;;;;;;;;;;5051988;28;20514;-87
2021/01/29 02:52:59;;;;;;;17.00;10.23;;;;;;;;;;5051703;28;20184;-86
2021/01/29 02:55:26;;;;;;;18.33;10.60;;;;;;;;;;5056149;28;20198;-87
2021/01/29 02:58:06;;;;;;;17.17;11.13;;;;;;;;;;5055812;28;20501;-87
2021/01/29 03:00:32;;;;;;;16.93;10.67;;;;;;;;;;5055609;28;20659;-86
2021/01/29 03:03:19;;;;;;;18.90;10.67;;;;;;;;;;5055708;28;20210;-87
2021/01/29 03:05:59;;;;;;;18.90;11.07;;;;;;;;;;5055539;28;20186;-87
2021/01/29 03:08:28;;;;;;;21.13;11.77;;;;;;;;;;5055470;28;20626;-87
2021/01/29 03:10:53;;;;;;;20.33;11.97;;;;;;;;;;5055562;28;20207;-87
2021/01/29 03:13:45;;;;;;;21.70;12.37;;;;;;;;;;5055404;28;20233;-87
2021/01/29 03:16:22;;;;;;;22.13;12.20;;;;;;;;;;5051958;28;20187;-88
2021/01/29 03:18:48;;;;;;;19.70;11.20;;;;;;;;;;5055554;28;20180;-88
2021/01/29 03:21:20;;;;;;;18.10;11.83;;;;;;;;;;5037378;28;20176;-87
2021/01/29 03:23:50;;;;;;;26.53;14.93;;;;;;;;;;5054848;28;20181;-86
2021/01/29 03:26:20;;;;;;;27.07;16.03;;;;;;;;;;5055218;28;20168;-87
2021/01/29 03:28:49;;;;;;;25.47;13.53;;;;;;;;;;5055111;28;20228;-87
2021/01/29 03:31:15;;;;;;;18.83;12.23;;;;;;;;;;5037025;28;20179;-86
2021/01/29 03:33:41;;;;;;;22.37;13.13;;;;;;;;;;5054999;28;20187;-87
2021/01/29 03:36:10;;;;;;;21.90;14.20;;;;;;;;;;5054958;28;20172;-86
2021/01/29 03:38:40;;;;;;;26.80;15.33;;;;;;;;;;5037006;28;20179;-86
2021/01/29 03:41:21;;;;;;;28.20;15.83;;;;;;;;;;5054895;28;20171;-87
2021/01/29 03:43:52;;;;;;;26.40;15.60;;;;;;;;;;5054412;28;20682;-87
2021/01/29 03:46:22;;;;;;;19.43;12.00;;;;;;;;;;5054435;28;20168;-87
2021/01/29 03:49:06;;;;;;;20.07;12.47;;;;;;;;;;5054744;28;20178;-87
2021/01/29 03:51:49;;;;;;;21.27;14.33;;;;;;;;;;5054700;28;20217;-87
2021/01/29 03:54:21;;;;;;;20.47;12.70;;;;;;;;;;5054329;28;20573;-88
2021/01/29 03:56:52;;;;;;;19.77;12.93;;;;;;;;;;5054523;28;20172;-87
2021/01/29 03:59:32;;;;;;;19.27;11.70;;;;;;;;;;5054509;28;20256;-87
2021/01/29 04:02:01;;;;;;;19.10;11.57;;;;;;;;;;5054781;28;20241;-87
2021/01/29 04:04:33;;;;;;;17.37;10.60;;;;;;;;;;5053987;28;20183;-87
2021/01/29 04:07:14;;;;;;;20.83;13.27;;;;;;;;;;5036360;28;20249;-86
2021/01/29 04:09:51;;;;;;;19.97;11.93;;;;;;;;;;5054299;28;20172;-87
2021/01/29 04:12:25;;;;;;;17.37;11.67;;;;;;;;;;5055045;28;20187;-87
2021/01/29 04:15:09;;;;;;;17.53;11.10;;;;;;;;;;5061849;28;20172;-86
2021/01/29 04:17:41;;;;;;;17.53;10.27;;;;;;;;;;5077963;28;20160;-86
2021/01/29 04:20:10;;;;;;;17.03;10.07;;;;;;;;;;5057436;28;20187;-86
2021/01/29 04:22:37;;;;;;;17.80;11.30;;;;;;;;;;5075643;28;20192;-86
2021/01/29 04:25:10;;;;;;;16.80;10.47;;;;;;;;;;5054188;28;20737;-86
2021/01/29 04:27:37;;;;;;;17.83;11.17;;;;;;;;;;5054013;28;20171;-86
2021/01/29 04:30:11;;;;;;;16.03;11.77;;;;;;;;;;5054201;28;20175;-87
2021/01/29 04:32:38;;;;;;;18.70;11.23;;;;;;;;;;5053857;28;20175;-87
2021/01/29 04:35:05;;;;;;;16.77;11.20;;;;;;;;;;5054117;28;20806;-87
2021/01/29 04:37:32;;;;;;;17.27;10.63;;;;;;;;;;5054264;28;20176;-87
2021/01/29 04:39:59;;;;;;;16.83;10.50;;;;;;;;;;5053733;28;20175;-87
2021/01/29 04:42:32;;;;;;;15.13;9.87;;;;;;;;;;5053566;28;20200;-87
2021/01/29 04:45:07;;;;;;;15.00;10.17;;;;;;;;;;5054023;28;20214;-87
2021/01/29 04:47:35;;;;;;;15.27;9.63;;;;;;;;;;5054347;28;20206;-87
2021/01/29 04:50:12;;;;;;;13.13;8.70;;;;;;;;;;5053567;28;20177;-87
2021/01/29 04:52:38;;;;;;;14.40;10.10;;;;;;;;;;5053639;28;20616;-87
2021/01/29 04:55:22;;;;;;;15.27;9.37;;;;;;;;;;5035823;28;20206;-88
2021/01/29 04:58:01;;;;;;;15.13;9.33;;;;;;;;;;5053197;28;20249;-88
2021/01/29 05:00:30;;;;;;;14.73;9.83;;;;;;;;;;5035543;28;20171;-88
2021/01/29 05:03:13;;;;;;;15.67;10.20;;;;;;;;;;5053266;28;20196;-87
2021/01/29 05:05:54;;;;;;;19.57;12.10;;;;;;;;;;5035360;28;20389;-87
2021/01/29 05:08:38;;;;;;;18.37;10.27;;;;;;;;;;5052926;28;20172;-88
2021/01/29 05:11:21;;;;;;;23.20;12.27;;;;;;;;;;5053021;28;20175;-88
2021/01/29 05:14:07;;;;;;;19.53;10.97;;;;;;;;;;5053252;28;20282;-88
2021/01/29 05:16:38;;;;;;;19.50;12.13;;;;;;;;;;5041891;28;20529;-88
2021/01/29 05:19:21;;;;;;;21.00;11.80;;;;;;;;;;5035301;28;20172;-87
2021/01/29 05:21:49;;;;;;;17.07;10.10;;;;;;;;;;5053043;28;20275;-87
2021/01/29 05:24:20;;;;;;;18.43;11.20;;;;;;;;;;5052744;28;20234;-87
2021/01/29 05:27:15;;;;;;;15.83;9.87;;;;;;;;;;5053085;28;20187;-87
2021/01/29 05:29:46;;;;;;;18.30;9.37;;;;;;;;;;4998643;28;20284;-87
2021/01/29 05:32:34;;;;;;;17.17;9.83;;;;;;;;;;5052995;28;20168;-87
2021/01/29 05:35:18;;;;;;;15.43;9.50;;;;;;;;;;5044439;28;20211;-88
2021/01/29 05:37:53;;;;;;;17.77;10.87;;;;;;;;;;5052788;28;20168;-87
2021/01/29 05:40:21;;;;;;;14.37;9.97;;;;;;;;;;5052579;28;20608;-87
2021/01/29 05:42:59;;;;;;;17.23;9.73;;;;;;;;;;5034730;28;20707;-87
2021/01/29 05:45:24;;;;;;;25.13;12.67;;;;;;;;;;5052809;28;20561;-87
2021/01/29 05:48:08;;;;;;;32.23;15.40;;;;;;;;;;5052340;28;20214;-87
2021/01/29 05:50:52;;;;;;;18.57;9.80;;;;;;;;;;5052335;28;20682;-87
2021/01/29 05:53:35;;;;;;;18.20;9.90;;;;;;;;;;5052901;28;20258;-87
2021/01/29 05:56:09;;;;;;;17.00;10.50;;;;;;;;;;5034728;28;20564;-86
2021/01/29 05:58:49;;;;;;;19.93;11.00;;;;;;;;;;5034764;28;20168;-87
2021/01/29 06:01:20;;;;;;;22.47;12.60;;;;;;;;;;5052400;28;20159;-86
2021/01/29 06:04:18;;;;;;;23.00;12.07;;;;;;;;;;5052168;28;20214;-87
2021/01/29 06:07:06;;;;;;;28.70;16.00;;;;;;;;;;5018594;28;20551;-86
2021/01/29 06:09:50;;;;;;;17.67;9.73;;;;;;;;;;5023657;28;20191;-86
2021/01/29 06:12:26;;;;;;;15.80;9.37;;;;;;;;;;5052423;28;20194;-86
2021/01/29 06:15:02;;;;;;;15.07;10.07;;;;;;;;;;5052721;28;20171;-86
2021/01/29 06:17:33;;;;;;;14.17;9.37;;;;;;;;;;5052392;28;20160;-86
2021/01/29 06:20:07;;;;;;;13.93;8.13;;;;;;;;;;5052526;28;20198;-86
2021/01/29 06:22:42;;;;;;;33.83;18.97;;;;;;;;;;5051785;28;20202;-87
2021/01/29 06:25:13;;;;;;;71.93;34.13;;;;;;;;;;5034001;28;20235;-87
2021/01/29 06:27:57;;;;;;;39.23;21.40;;;;;;;;;;5059513;28;20153;-86
2021/01/29 06:30:43;;;;;;;23.90;12.97;;;;;;;;;;5081090;28;20202;-85
2021/01/29 06:33:09;;;;;;;74.83;30.10;;;;;;;;;;5061167;28;20176;-86
2021/01/29 06:35:53;;;;;;;100.33;36.63;;;;;;;;;;5074675;28;21013;-86
2021/01/29 06:38:24;;;;;;;60.17;29.73;;;;;;;;;;5069390;28;20616;-87
2021/01/29 06:40:52;;;;;;;50.53;24.67;;;;;;;;;;5056125;28;20168;-87
2021/01/29 06:43:28;;;;;;;33.70;18.80;;;;;;;;;;5055700;28;20199;-86
2021/01/29 06:46:03;;;;;;;50.63;22.37;;;;;;;;;;5037984;28;20226;-87
2021/01/29 06:48:47;;;;;;;87.83;32.17;;;;;;;;;;5055653;28;20160;-87
2021/01/29 06:51:22;;;;;;;58.90;24.80;;;;;;;;;;5055797;28;20168;-87
2021/01/29 06:54:06;;;;;;;69.40;33.83;;;;;;;;;;5055890;28;20266;-87
2021/01/29 06:56:54;;;;;;;36.33;20.00;;;;;;;;;;5055768;28;20164;-87
2021/01/29 06:59:25;;;;;;;45.37;24.90;;;;;;;;;;5047294;28;20188;-87
2021/01/29 07:02:05;;;;;;;46.77;22.50;;;;;;;;;;5055343;28;20203;-87
2021/01/29 07:04:57;;;;;;;20.30;11.17;;;;;;;;;;5055745;28;20199;-87
2021/01/29 07:07:31;;;;;;;25.83;14.97;;;;;;;;;;5031609;28;20192;-86
2021/01/29 07:10:07;;;;;;;34.27;20.43;;;;;;;;;;5055271;28;20164;-87
2021/01/29 07:12:48;;;;;;;34.50;19.40;;;;;;;;;;5037465;28;20198;-86
2021/01/29 07:15:28;;;;;;;15.63;9.80;;;;;;;;;;5037947;28;20180;-87
2021/01/29 07:18:13;;;;;;;19.70;11.73;;;;;;;;;;5055556;28;20164;-87
2021/01/29 07:21:02;;;;;;;21.93;11.80;;;;;;;;;;5054774;28;20554;-86
2021/01/29 07:23:30;;;;;;;25.00;16.10;;;;;;;;;;5016285;28;20285;-86
2021/01/29 07:26:07;;;;;;;31.17;18.90;;;;;;;;;;5055457;28;20223;-86
2021/01/29 07:28:41;;;;;;;26.33;17.00;;;;;;;;;;5055053;28;20188;-86
2021/01/29 07:31:06;;;;;;;18.23;11.63;;;;;;;;;;5054973;28;20171;-85
2021/01/29 07:33:36;;;;;;;31.93;16.73;;;;;;;;;;5055223;28;20274;-86
2021/01/29 07:36:07;;;;;;;24.13;14.07;;;;;;;;;;5037198;28;20617;-85
2021/01/29 07:38:45;;;;;;;33.07;18.47;;;;;;;;;;5054876;28;20157;-87
2021/01/29 07:41:22;;;;;;;20.43;12.83;;;;;;;;;;5054355;28;20176;-87
2021/01/29 07:43:57;;;;;;;20.27;12.27;;;;;;;;;;5055325;28;20279;-87
2021/01/29 07:46:36;;;;;;;20.13;12.77;;;;;;;;;;5054983;28;20179;-86
2021/01/29 07:49:11;;;;;;;18.77;11.70;;;;;;;;;;5054652;28;20156;-86
2021/01/29 07:51:55;;;;;;;22.13;12.57;;;;;;;;;;5054966;28;20234;-87
2021/01/29 07:54:23;;;;;;;33.57;19.70;;;;;;;;;;5054814;28;20174;-87
2021/01/29 07:57:07;;;;;;;44.83;19.00;;;;;;;;;;5054566;28;20168;-87
2021/01/29 07:59:51;;;;;;;19.37;11.20;;;;;;;;;;5054283;28;20176;-87
2021/01/29 08:02:35;;;;;;;26.90;16.87;;;;;;;;;;5051601;28;20205;-87
2021/01/29 08:05:18;;;;;;;17.70;9.73;;;;;;;;;;5036578;28;20186;-87
2021/01/29 08:07:55;;;;;;;15.00;10.63;;;;;;;;;;5054307;28;20168;-85
2021/01/29 08:10:31;;;;;;;27.33;15.43;;;;;;;;;;5054261;28;20573;-86
2021/01/29 08:13:20;;;;;;;24.83;14.73;;;;;;;;;;5054712;28;20634;-87
2021/01/29 08:15:56;;;;;;;22.83;13.23;;;;;;;;;;5016584;28;20663;-87
2021/01/29 08:18:36;;;;;;;33.40;18.83;;;;;;;;;;5054545;28;20170;-88
2021/01/29 08:21:16;;;;;;;19.30;11.60;;;;;;;;;;5053899;28;20168;-86
2021/01/29 08:24:00;;;;;;;21.50;13.37;;;;;;;;;;5054052;28;20204;-88
2021/01/29 08:26:32;;;;;;;15.73;10.13;;;;;;;;;;5054016;28;20172;-86
2021/01/29 08:29:15;;;;;;;15.90;10.17;;;;;;;;;;5054143;28;20160;-86
2021/01/29 08:31:59;;;;;;;36.13;19.47;;;;;;;;;;5053992;28;20168;-87
2021/01/29 08:34:30;;;;;;;47.17;23.67;;;;;;;;;;5053986;28;20255;-87
2021/01/29 08:37:14;;;;;;;48.37;22.57;;;;;;;;;;5053819;28;20230;-87
2021/01/29 08:39:45;;;;;;;42.47;20.50;;;;;;;;;;5053412;28;20643;-89
2021/01/29 08:42:17;;;;;;;42.87;20.73;;;;;;;;;;5053563;28;20729;-88
2021/01/29 08:45:01;;;;;;;45.80;21.93;;;;;;;;;;5053721;28;20620;-88
2021/01/29 08:47:45;;;;;;;47.40;23.37;;;;;;;;;;5053924;28;20689;-87
2021/01/29 08:50:13;;;;;;;47.30;23.13;;;;;;;;;;5053915;28;20186;-88
2021/01/29 08:52:39;;;;;;;39.27;21.87;;;;;;;;;;5052654;28;20644;-89
2021/01/29 08:55:13;;;;;;;42.90;24.63;;;;;;;;;;5053407;28;20170;-88
2021/01/29 08:57:48;;;;;;;36.87;19.33;;;;;;;;;;5053340;28;20193;-88
2021/01/29 09:00:20;;;;;;;33.07;19.37;;;;;;;;;;5053145;28;20163;-89
2021/01/29 09:02:52;;;;;;;52.47;24.50;;;;;;;;;;5051829;28;20679;-89
2021/01/29 09:05:28;;;;;;;37.63;18.90;;;;;;;;;;5052974;28;20178;-89
2021/01/29 09:08:01;;;;;;;31.73;18.00;;;;;;;;;;5034149;28;20205;-90
2021/01/29 09:10:50;;;;;;;35.93;20.23;;;;;;;;;;5055180;28;20168;-91
2021/01/29 09:13:17;;;;;;;28.60;16.67;;;;;;;;;;5026032;28;20745;-89
2021/01/29 09:16:00;;;;;;;47.03;26.03;;;;;;;;;;5054065;28;20171;-90
2021/01/29 09:18:29;;;;;;;35.63;20.10;;;;;;;;;;5054413;28;20160;-90
2021/01/29 09:21:13;;;;;;;27.43;17.87;;;;;;;;;;5037396;28;20195;-90
2021/01/29 09:23:48;;;;;;;26.63;17.30;;;;;;;;;;5037772;28;20188;-89
2021/01/29 09:26:33;;;;;;;21.07;14.60;;;;;;;;;;5016519;28;20294;-90
2021/01/29 09:29:05;;;;;;;36.50;20.97;;;;;;;;;;5016700;28;20170;-90
2021/01/29 09:31:35;;;;;;;34.27;20.73;;;;;;;;;;5016732;28;20561;-90
2021/01/29 09:34:03;;;;;;;33.70;19.87;;;;;;;;;;5013724;28;20181;-90
2021/01/29 09:36:38;;;;;;;32.83;19.77;;;;;;;;;;5011984;28;20180;-90
2021/01/29 09:39:09;;;;;;;25.43;16.30;;;;;;;;;;5011391;28;20176;-91
2021/01/29 09:41:37;;;;;;;33.57;22.43;;;;;;;;;;5011243;28;20180;-89
2021/01/29 09:44:11;;;;;;;27.07;17.90;;;;;;;;;;5012724;28;20196;-90
2021/01/29 09:46:39;;;;;;;31.90;19.47;;;;;;;;;;5012887;28;20195;-90
2021/01/29 09:49:07;;;;;;;25.43;16.30;;;;;;;;;;5011170;28;20184;-90
2021/01/29 09:51:55;;;;;;;26.33;17.83;;;;;;;;;;5012335;28;20331;-90
2021/01/29 09:54:20;;;;;;;26.77;16.33;;;;;;;;;;5013491;28;20176;-90
2021/01/29 09:56:51;;;;;;;28.60;18.97;;;;;;;;;;5012793;28;20169;-88
2021/01/29 09:59:23;;;;;;;26.57;16.60;;;;;;;;;;5012415;28;20165;-89
2021/01/29 10:01:52;;;;;;;21.50;14.57;;;;;;;;;;5012194;28;20180;-90
2021/01/29 10:04:20;;;;;;;18.63;13.20;;;;;;;;;;5015204;28;20196;-88
2021/01/29 10:06:49;;;;;;;21.13;14.47;;;;;;;;;;5016200;28;20188;-88
2021/01/29 10:09:16;;;;;;;20.33;14.60;;;;;;;;;;5016594;28;20184;-89
2021/01/29 10:11:41;;;;;;;20.97;13.40;;;;;;;;;;5014648;28;20184;-89
2021/01/29 10:14:06;;;;;;;22.97;17.47;;;;;;;;;;5016962;28;20197;-89
2021/01/29 10:16:34;;;;;;;23.97;17.27;;;;;;;;;;5015264;28;20188;-88
2021/01/29 10:19:13;;;;;;;22.13;14.87;;;;;;;;;;5015692;28;20209;-90
2021/01/29 10:21:47;;;;;;;22.50;14.50;;;;;;;;;;5015910;28;20188;-90
2021/01/29 10:24:18;;;;;;;24.07;17.33;;;;;;;;;;5021960;28;20180;-88
2021/01/29 10:27:09;;;;;;;57.63;30.47;;;;;;;;;;5056053;28;20662;-88
2021/01/29 10:29:36;;;;;;;120.43;44.10;;;;;;;;;;5023678;28;20725;-89
2021/01/29 10:32:04;;;;;;;35.27;20.60;;;;;;;;;;5056059;28;20183;-89
2021/01/29 10:34:32;;;;;;;28.67;18.93;;;;;;;;;;5057350;28;20237;-88
2021/01/29 10:37:20;;;;;;;32.87;21.47;;;;;;;;;;5056024;28;20172;-90
2021/01/29 10:39:51;;;;;;;27.93;20.20;;;;;;;;;;5052117;28;20179;-87
2021/01/29 10:42:18;;;;;;;24.80;15.07;;;;;;;;;;5057199;28;20225;-89
2021/01/29 10:44:44;;;;;;;26.63;18.87;;;;;;;;;;5056152;28;20705;-88
2021/01/29 10:47:45;;;;;;;23.37;14.83;;;;;;;;;;5055394;28;20210;-89
2021/01/29 10:50:20;;;;;;;23.63;15.23;;;;;;;;;;4993485;28;20174;-88
2021/01/29 10:52:59;;;;;;;22.93;16.00;;;;;;;;;;5040876;28;20191;-89
2021/01/29 10:55:31;;;;;;;27.40;17.90;;;;;;;;;;5038320;28;20244;-88
2021/01/29 10:57:56;;;;;;;29.40;18.17;;;;;;;;;;5054928;28;20587;-89
2021/01/29 11:00:27;;;;;;;27.00;17.50;;;;;;;;;;5055197;28;20215;-88
2021/01/29 11:03:00;;;;;;;24.40;15.70;;;;;;;;;;5055117;28;20207;-90
2021/01/29 11:05:27;;;;;;;30.23;20.23;;;;;;;;;;5055812;28;20180;-89
2021/01/29 11:07:53;;;;;;;25.67;16.57;;;;;;;;;;5055255;28;20180;-89
2021/01/29 11:10:22;;;;;;;23.80;16.53;;;;;;;;;;5055431;28;20628;-89
2021/01/29 11:13:06;;;;;;;19.60;14.03;;;;;;;;;;5051692;28;20555;-90
2021/01/29 11:15:35;;;;;;;18.27;13.07;;;;;;;;;;5052928;28;20233;-90
2021/01/29 11:18:23;;;;;;;19.73;14.43;;;;;;;;;;5055328;28;20258;-89
2021/01/29 11:20:48;;;;;;;24.73;16.83;;;;;;;;;;5053444;28;20176;-89
2021/01/29 11:23:33;;;;;;;22.97;16.80;;;;;;;;;;5037179;28;20208;-90
2021/01/29 11:26:11;;;;;;;26.10;17.13;;;;;;;;;;5055111;28;20318;-90
2021/01/29 11:28:45;;;;;;;20.90;14.97;;;;;;;;;;5036683;28;20190;-89
2021/01/29 11:31:32;;;;;;;22.50;15.50;;;;;;;;;;5054159;28;20658;-90
2021/01/29 11:33:58;;;;;;;34.37;23.57;;;;;;;;;;5036058;28;20180;-90
2021/01/29 11:36:29;;;;;;;20.47;15.43;;;;;;;;;;5054750;28;20184;-91
2021/01/29 11:39:03;;;;;;;21.60;14.83;;;;;;;;;;5054851;28;20188;-90
2021/01/29 11:41:32;;;;;;;26.70;17.00;;;;;;;;;;5054626;28;20186;-91
2021/01/29 11:43:57;;;;;;;26.43;17.63;;;;;;;;;;5036634;28;20216;-90
2021/01/29 11:46:42;;;;;;;32.30;19.47;;;;;;;;;;5054487;28;20179;-90
2021/01/29 11:49:11;;;;;;;29.87;18.90;;;;;;;;;;5037316;28;20658;-90
2021/01/29 11:51:36;;;;;;;30.20;17.97;;;;;;;;;;5054255;28;20513;-90
2021/01/29 11:54:06;;;;;;;26.67;16.87;;;;;;;;;;5054429;28;20262;-90
2021/01/29 11:56:37;;;;;;;32.30;18.50;;;;;;;;;;5054370;28;20187;-90
2021/01/29 11:59:06;;;;;;;21.03;15.90;;;;;;;;;;5058901;28;20258;-89
2021/01/29 12:01:48;;;;;;;21.90;15.00;;;;;;;;;;5054095;28;20258;-88
2021/01/29 12:04:25;;;;;;;21.23;15.13;;;;;;;;;;5052277;28;20192;-88
2021/01/29 12:07:06;;;;;;;27.30;19.03;;;;;;;;;;5051969;28;20174;-87
2021/01/29 12:09:47;;;;;;;26.90;17.27;;;;;;;;;;5054195;28;20643;-88
2021/01/29 12:12:19;;;;;;;24.43;15.67;;;;;;;;;;5052426;28;20186;-88
2021/01/29 12:15:01;;;;;;;37.73;20.60;;;;;;;;;;5036958;28;20175;-87
2021/01/29 12:17:27;;;;;;;30.30;19.90;;;;;;;;;;5053447;28;20647;-87
2021/01/29 12:20:08;;;;;;;27.43;18.27;;;;;;;;;;5035051;28;20179;-87
2021/01/29 12:22:44;;;;;;;19.83;14.57;;;;;;;;;;5053004;28;20196;-88
2021/01/29 12:25:12;;;;;;;21.87;15.33;;;;;;;;;;5054302;28;20223;-88
2021/01/29 12:27:42;;;;;;;23.43;15.77;;;;;;;;;;5051875;28;20190;-88
2021/01/29 12:30:27;;;;;;;22.90;16.37;;;;;;;;;;5053295;28;20264;-88
2021/01/29 12:33:11;;;;;;;22.90;15.83;;;;;;;;;;5051294;28;20184;-88
2021/01/29 12:35:50;;;;;;;25.03;17.17;;;;;;;;;;5053427;28;20179;-89
2021/01/29 12:38:36;;;;;;;25.77;15.97;;;;;;;;;;5052622;28;20258;-88
2021/01/29 12:41:27;;;;;;;26.63;17.10;;;;;;;;;;5049714;28;20170;-85
2021/01/29 12:43:59;;;;;;;19.23;13.27;;;;;;;;;;5048170;28;20679;-86
2021/01/29 12:46:26;;;;;;;22.90;15.83;;;;;;;;;;5034049;28;20294;-86
2021/01/29 12:49:10;;;;;;;20.40;14.43;;;;;;;;;;5051960;28;20176;-85
2021/01/29 12:52:11;;;;;;;27.90;17.83;;;;;;;;;;5051207;28;20605;-84
2021/01/29 12:54:55;;;;;;;24.70;15.43;;;;;;;;;;4971645;28;20222;-85
2021/01/29 12:57:22;;;;;;;19.47;13.90;;;;;;;;;;5044331;28;20203;-86
2021/01/29 12:59:54;;;;;;;20.77;15.00;;;;;;;;;;5051664;28;20735;-88
2021/01/29 13:02:43;;;;;;;21.43;15.13;;;;;;;;;;5051515;28;20200;-88
2021/01/29 13:05:12;;;;;;;27.30;17.97;;;;;;;;;;5053155;28;20175;-87
2021/01/29 13:07:49;;;;;;;28.60;20.23;;;;;;;;;;5050023;28;20259;-88
2021/01/29 13:10:23;;;;;;;21.50;14.70;;;;;;;;;;5047891;28;20184;-88
2021/01/29 13:13:02;;;;;;;18.13;13.23;;;;;;;;;;5050396;28;20282;-89
2021/01/29 13:15:31;;;;;;;18.67;13.77;;;;;;;;;;5050234;28;20592;-88
2021/01/29 13:18:13;;;;;;;21.73;15.93;;;;;;;;;;5050214;28;20182;-88
2021/01/29 13:20:38;;;;;;;23.67;16.30;;;;;;;;;;5032896;28;20180;-87
2021/01/29 13:23:18;;;;;;;22.50;15.53;;;;;;;;;;5051831;28;20215;-87
2021/01/29 13:25:55;;;;;;;21.17;14.57;;;;;;;;;;5050723;28;20226;-85
2021/01/29 13:28:21;;;;;;;23.00;16.50;;;;;;;;;;5050169;28;20219;-85
2021/01/29 13:30:46;;;;;;;24.57;16.77;;;;;;;;;;5034192;28;20180;-86
2021/01/29 13:33:12;;;;;;;23.60;15.10;;;;;;;;;;5051496;28;20171;-86
2021/01/29 13:35:38;;;;;;;21.17;14.50;;;;;;;;;;5050595;28;20572;-86
2021/01/29 13:38:08;;;;;;;26.23;16.80;;;;;;;;;;5050660;28;20620;-86
2021/01/29 13:40:33;;;;;;;23.43;16.97;;;;;;;;;;5051350;28;20222;-86
2021/01/29 13:43:08;;;;;;;28.50;17.50;;;;;;;;;;5031828;28;20207;-86
2021/01/29 13:45:33;;;;;;;32.20;21.03;;;;;;;;;;5051617;28;20167;-86
2021/01/29 13:48:19;;;;;;;27.60;20.20;;;;;;;;;;5048765;28;20178;-87
2021/01/29 13:50:52;;;;;;;29.70;20.17;;;;;;;;;;5051743;28;20209;-86
2021/01/29 13:53:29;;;;;;;32.73;19.13;;;;;;;;;;5048714;28;20180;-86
2021/01/29 13:56:10;;;;;;;33.10;20.57;;;;;;;;;;5032288;28;20187;-85
2021/01/29 13:58:45;;;;;;;37.07;22.07;;;;;;;;;;5049774;28;20179;-85
2021/01/29 14:01:36;;;;;;;46.17;27.70;;;;;;;;;;5050013;28;20245;-85
2021/01/29 14:04:04;;;;;;;29.50;17.87;;;;;;;;;;5050788;28;20210;-86
2021/01/29 14:06:32;;;;;;;39.40;23.23;;;;;;;;;;5051438;28;20711;-86
2021/01/29 14:08:57;;;;;;;25.70;15.73;;;;;;;;;;5051599;28;20175;-86
2021/01/29 14:11:28;;;;;;;25.50;17.27;;;;;;;;;;5049602;28;20178;-86
2021/01/29 14:14:04;;;;;;;24.07;16.13;;;;;;;;;;5051365;28;20203;-86
2021/01/29 14:16:38;;;;;;;29.53;18.53;;;;;;;;;;5032975;28;20179;-86
2021/01/29 14:19:14;;;;;;;43.23;24.53;;;;;;;;;;5048026;28;20604;-87
2021/01/29 14:21:53;;;;;;;41.07;24.17;;;;;;;;;;5049074;28;20175;-86
2021/01/29 14:24:19;;;;;;;27.60;16.90;;;;;;;;;;5052444;28;20171;-86
2021/01/29 14:26:44;;;;;;;42.80;23.17;;;;;;;;;;5049515;28;20214;-86
2021/01/29 14:29:09;;;;;;;69.00;37.07;;;;;;;;;;5051471;28;20179;-86
2021/01/29 14:31:38;;;;;;;37.50;25.13;;;;;;;;;;5032516;28;20313;-85
2021/01/29 14:34:14;;;;;;;32.27;20.67;;;;;;;;;;5052741;28;20530;-86
2021/01/29 14:37:00;;;;;;;26.87;18.60;;;;;;;;;;5032874;28;20197;-86
2021/01/29 14:39:28;;;;;;;29.87;19.53;;;;;;;;;;5051650;28;20530;-85
2021/01/29 14:41:59;;;;;;;23.70;15.77;;;;;;;;;;5032856;28;20212;-86
2021/01/29 14:44:44;;;;;;;26.43;16.50;;;;;;;;;;5034006;28;20199;-86
2021/01/29 14:47:32;;;;;;;23.27;15.47;;;;;;;;;;5050365;28;20180;-86
2021/01/29 14:50:13;;;;;;;32.97;20.80;;;;;;;;;;5015596;28;20195;-86
2021/01/29 14:53:05;;;;;;;33.30;20.53;;;;;;;;;;5055807;28;20328;-85
2021/01/29 14:55:49;;;;;;;33.70;21.63;;;;;;;;;;5023014;28;20288;-85
2021/01/29 14:58:16;;;;;;;32.07;21.30;;;;;;;;;;5051322;28;20587;-86